Time;durP1;ratioP1;P1;durP2;ratioP2;P2;SDS_P1;SDS_P2;PMS_P1;PMS_P2;Temp;Humidity;BMP_temperature;BMP_pressure;BME280_temperature;BME280_humidity;BME280_pressure;Samples;Min_cycle;Max_cycle;Signal;HPM_P1;HPM_P2
2020/12/12 14:28:49;;;;;;;;;;;;;;;;;;;;;
2020/12/12 14:35:39;;;;;;;47.62;27.58;;;;;;;4.03;73.70;97899.69;228978;1131;7520282;-68
2020/12/12 14:40:59;;;;;;;46.60;26.00;;;;;;;4.05;73.72;97907.52;236408;1134;5507680;-70
2020/12/12 14:46:10;;;;;;;41.85;24.72;;;;;;;4.09;73.42;97912.52;240749;1134;7263686;-66
2020/12/12 14:51:28;;;;;;;41.85;23.38;;;;;;;4.20;73.18;97909.30;251636;1135;114577;-71
2020/12/12 14:56:38;;;;;;;47.23;25.60;;;;;;;4.30;73.49;97914.92;251577;1134;114625;-71
2020/12/12 15:01:47;;;;;;;47.83;25.72;;;;;;;4.36;72.81;97918.06;251873;1132;114666;-67
2020/12/12 15:06:49;;;;;;;47.17;25.27;;;;;;;4.41;72.50;97918.65;250205;1133;1902414;-67
2020/12/12 15:12:16;;;;;;;46.50;26.48;;;;;;;4.38;72.18;97921.48;252002;1132;114873;-68
2020/12/12 15:17:29;;;;;;;51.50;27.10;;;;;;;4.37;72.51;97932.08;251962;1133;114355;-69
2020/12/12 15:22:31;;;;;;;;;;;;;;;4.36;73.02;97931.23;251907;1132;114445;-68
2020/12/12 15:27:34;;;;;;;46.83;25.15;;;;;;;4.33;72.22;97935.83;252132;1132;102518;-68
2020/12/12 15:32:38;;;;;;;54.85;27.73;;;;;;;4.32;73.14;97931.50;251802;1132;114298;-70
2020/12/12 15:37:46;;;;;;;49.67;26.52;;;;;;;4.36;72.96;97938.30;251996;1132;114709;-68
2020/12/12 15:42:51;;;;;;;52.93;27.32;;;;;;;4.41;73.01;97950.26;251973;1132;114793;-68
2020/12/12 15:48:05;;;;;;;;;;;;;;;;;;;;;
2020/12/12 15:53:34;;;;;;;;;;;;;;;;;;;;;
2020/12/12 15:59:23;;;;;;;49.42;27.07;;;;;;;4.45;73.22;97957.08;251690;1132;114918;-70
2020/12/12 16:05:04;;;;;;;44.97;24.70;;;;;;;4.40;73.07;97959.10;251515;1132;115308;-70
2020/12/12 16:10:25;;;;;;;48.77;25.77;;;;;;;4.37;72.60;97959.27;250957;1132;115089;-70
2020/12/12 16:15:42;;;;;;;57.83;30.08;;;;;;;4.26;72.63;97949.31;251086;1134;114785;-72
2020/12/12 16:21:10;;;;;;;57.15;28.80;;;;;;;4.37;72.68;97959.27;251271;1133;114363;-70
2020/12/12 16:26:44;;;;;;;57.27;29.63;;;;;;;4.42;72.60;97965.15;250524;1133;114791;-74
2020/12/12 16:32:34;;;;;;;50.40;27.17;;;;;;;4.43;73.03;97964.20;251957;1133;115934;-73
2020/12/12 16:37:47;;;;;;;49.18;26.45;;;;;;;4.41;72.49;97970.48;251888;1133;115082;-73
2020/12/12 16:43:14;;;;;;;45.95;25.57;;;;;;;4.36;72.79;97968.11;252094;1133;114699;-72
2020/12/12 16:48:24;;;;;;;50.80;24.12;;;;;;;4.33;72.08;97964.80;252096;1131;115273;-72
2020/12/12 16:53:35;;;;;;;48.87;25.32;;;;;;;4.27;72.45;97977.34;252085;1132;114775;-72
2020/12/12 16:58:51;;;;;;;55.75;27.77;;;;;;;4.26;72.04;97974.80;251990;1132;114788;-72
2020/12/12 17:04:23;;;;;;;;;;;;;;;;;;;;;
2020/12/12 17:09:46;;;;;;;51.83;27.90;;;;;;;4.31;72.28;97978.03;252143;1133;115888;-73
2020/12/12 17:15:09;;;;;;;53.90;27.60;;;;;;;4.34;72.75;97991.03;251918;1133;114581;-72
2020/12/12 17:20:33;;;;;;;55.03;28.40;;;;;;;4.36;72.23;97997.08;252039;1132;114751;-72
2020/12/12 17:25:43;;;;;;;51.18;26.55;;;;;;;4.33;72.74;97994.61;251610;1134;114784;-71
2020/12/12 17:30:57;;;;;;;59.53;28.70;;;;;;;4.30;73.25;97994.77;251336;1134;114537;-71
2020/12/12 17:36:17;;;;;;;53.52;27.58;;;;;;;4.28;73.29;97996.66;251720;1134;114773;-71
2020/12/12 17:41:50;;;;;;;60.55;29.30;;;;;;;4.29;73.39;97997.50;251914;1134;114678;-72
2020/12/12 17:47:04;;;;;;;53.15;27.35;;;;;;;4.31;72.99;97991.19;251648;1134;115435;-70
2020/12/12 17:52:15;;;;;;;55.40;28.20;;;;;;;4.35;72.39;97997.14;251803;1132;115574;-73
2020/12/12 17:57:36;;;;;;;56.35;29.55;;;;;;;4.42;73.54;98001.18;251516;1133;115146;-74
2020/12/12 18:02:47;;;;;;;60.77;30.40;;;;;;;4.44;72.84;98007.20;251615;1132;114627;-73
2020/12/12 18:08:16;;;;;;;57.88;29.82;;;;;;;4.40;72.79;98011.78;251535;1132;114497;-74
2020/12/12 18:13:20;;;;;;;64.27;29.97;;;;;;;4.35;72.30;98011.19;251754;1133;115073;-72
2020/12/12 18:18:59;;;;;;;68.83;31.55;;;;;;;4.33;72.52;98013.05;251634;1132;114869;-71
2020/12/12 18:24:02;;;;;;;66.83;32.30;;;;;;;4.32;72.73;98031.58;251406;1134;114920;-71
2020/12/12 18:29:25;;;;;;;64.50;33.15;;;;;;;4.37;72.55;98027.74;251836;1135;114951;-74
2020/12/12 18:34:43;;;;;;;64.27;31.62;;;;;;;4.43;73.27;98037.11;251530;1134;114954;-73
2020/12/12 18:39:52;;;;;;;58.98;30.68;;;;;;;4.45;73.35;98036.11;251937;1132;114844;-76
2020/12/12 18:45:24;;;;;;;64.10;31.65;;;;;;;4.46;73.02;98036.95;252308;1132;115061;-74
2020/12/12 18:50:58;;;;;;;62.85;29.52;;;;;;;4.43;72.37;98037.96;252021;1132;114969;-74
2020/12/12 18:56:14;;;;;;;59.42;30.62;;;;;;;4.41;73.44;98045.08;252150;1132;115097;-75
2020/12/12 19:01:45;;;;;;;57.98;30.95;;;;;;;4.36;72.26;98052.39;252047;1132;114659;-75
2020/12/12 19:06:52;;;;;;;62.67;29.77;;;;;;;4.34;72.32;98062.14;251861;1134;115149;-76
2020/12/12 19:12:09;;;;;;;57.47;29.07;;;;;;;4.35;73.37;98057.72;251859;1133;115000;-76
2020/12/12 19:17:22;;;;;;;54.67;28.53;;;;;;;4.41;72.82;98067.94;251969;1134;114932;-76
2020/12/12 19:22:32;;;;;;;54.38;27.55;;;;;;;4.42;72.64;98067.03;251774;1134;114959;-76
2020/12/12 19:27:38;;;;;;;60.40;27.98;;;;;;;4.52;73.83;98076.16;252050;1132;114726;-76
2020/12/12 19:32:48;;;;;;;59.70;26.27;;;;;;;4.55;72.46;98077.75;252113;1132;114921;-77
2020/12/12 19:37:57;;;;;;;72.05;30.15;;;;;;;4.49;72.52;98076.31;251976;1134;114660;-77
2020/12/12 19:43:10;;;;;;;55.17;26.53;;;;;;;4.49;73.38;98089.48;252104;1133;114693;-76
2020/12/12 19:48:23;;;;;;;47.60;23.42;;;;;;;4.53;73.41;98092.80;251998;1132;115010;-77
2020/12/12 19:53:42;;;;;;;52.40;25.48;;;;;;;4.62;73.36;98093.17;251897;1133;115663;-75
2020/12/12 19:59:24;;;;;;;47.60;24.70;;;;;;;4.60;73.59;98096.81;251601;1132;114912;-76
2020/12/12 20:04:38;;;;;;;56.68;23.32;;;;;;;4.56;72.87;98096.13;251889;1134;114896;-74
2020/12/12 20:09:44;;;;;;;54.53;25.77;;;;;;;4.49;73.24;98103.50;251813;1132;115517;-76
2020/12/12 20:14:58;;;;;;;43.95;22.85;;;;;;;4.39;72.61;98111.97;251837;1133;114819;-74
2020/12/12 20:20:26;;;;;;;42.58;22.40;;;;;;;4.31;73.21;98109.70;252069;1134;115042;-73
2020/12/12 20:25:35;;;;;;;55.08;24.12;;;;;;;4.27;72.61;98116.91;251874;1132;115235;-73
2020/12/12 20:30:40;;;;;;;49.80;23.98;;;;;;;4.26;72.77;98125.76;252244;1133;115785;-76
2020/12/12 20:35:59;;;;;;;44.87;22.20;;;;;;;4.34;72.77;98135.89;252164;1133;114393;-74
2020/12/12 20:41:04;;;;;;;46.53;22.10;;;;;;;4.34;72.64;98135.89;252065;1133;115041;-74
2020/12/12 20:46:41;;;;;;;;;;;;;;;;;;;;;
2020/12/12 20:51:58;;;;;;;47.47;23.50;;;;;;;4.25;72.97;98129.33;252083;1134;114218;-76
2020/12/12 20:57:19;;;;;;;52.85;25.52;;;;;;;4.22;72.38;98132.11;252080;1132;114501;-75
2020/12/12 21:02:26;;;;;;;44.73;20.60;;;;;;;4.24;72.18;98143.41;251996;1134;115786;-77
2020/12/12 21:07:30;;;;;;;44.67;22.32;;;;;;;4.20;73.08;98144.50;252160;1133;114716;-77
2020/12/12 21:12:42;;;;;;;43.50;22.13;;;;;;;4.19;73.08;98155.97;250715;1132;115375;-79
2020/12/12 21:18:15;;;;;;;46.02;22.60;;;;;;;4.19;72.83;98153.33;252091;1134;114466;-64
2020/12/12 21:23:18;;;;;;;49.40;24.20;;;;;;;4.23;72.67;98159.30;252190;1133;115744;-63
2020/12/12 21:28:20;;;;;;;45.60;21.65;;;;;;;4.23;72.98;98167.20;252144;1134;114872;-63
2020/12/12 21:33:23;;;;;;;41.30;21.43;;;;;;;4.21;72.09;98171.67;251916;1133;114578;-63
2020/12/12 21:38:27;;;;;;;45.00;21.50;;;;;;;4.15;72.29;98170.22;251948;1133;114521;-65
2020/12/12 21:43:32;;;;;;;45.40;21.15;;;;;;;4.14;72.88;98167.65;252205;1134;114412;-65
2020/12/12 21:48:35;;;;;;;42.70;21.07;;;;;;;4.11;71.99;98168.67;251939;1132;114978;-66
2020/12/12 21:53:37;;;;;;;40.83;21.52;;;;;;;4.11;72.20;98171.31;251900;1133;114560;-64
2020/12/12 21:58:40;;;;;;;41.93;22.30;;;;;;;4.12;72.87;98180.91;252061;1132;114757;-64
2020/12/12 22:03:43;;;;;;;48.20;22.60;;;;;;;4.16;72.80;98177.19;251925;1132;114840;-68
2020/12/12 22:08:46;;;;;;;44.53;21.47;;;;;;;4.17;72.36;98180.66;252100;1132;115563;-68
2020/12/12 22:13:48;;;;;;;41.57;19.90;;;;;;;4.15;72.11;98187.81;251929;1132;115820;-69
2020/12/12 22:18:50;;;;;;;41.87;20.10;;;;;;;4.09;71.98;98188.95;251907;1134;114513;-69
2020/12/12 22:23:54;;;;;;;44.55;21.02;;;;;;;4.07;72.43;98197.84;252019;1132;114279;-66
2020/12/12 22:28:56;;;;;;;47.27;23.05;;;;;;;4.05;72.55;98204.98;251955;1132;115647;-66
2020/12/12 22:33:59;;;;;;;53.15;24.40;;;;;;;4.14;72.60;98209.77;252048;1133;114326;-64
2020/12/12 22:39:03;;;;;;;65.90;32.63;;;;;;;4.19;72.83;98206.00;250358;1134;115019;-71
2020/12/12 22:44:05;;;;;;;59.65;30.57;;;;;;;4.28;72.29;98209.97;252076;1136;114591;-69
2020/12/12 22:49:08;;;;;;;68.30;31.20;;;;;;;4.29;73.02;98216.93;251990;1132;114350;-68
2020/12/12 22:54:11;;;;;;;65.92;31.87;;;;;;;4.26;72.91;98223.20;252081;1132;114571;-65
2020/12/12 22:59:13;;;;;;;72.78;33.40;;;;;;;4.24;72.00;98216.30;252110;1139;114211;-65
2020/12/12 23:04:16;;;;;;;66.42;31.93;;;;;;;4.21;71.83;98219.95;252147;1132;114760;-64
2020/12/12 23:09:18;;;;;;;69.40;32.40;;;;;;;4.18;72.31;98221.89;252065;1134;114666;-66
2020/12/12 23:14:21;;;;;;;67.10;29.87;;;;;;;4.25;72.77;98229.41;252170;1134;115370;-67
2020/12/12 23:19:23;;;;;;;63.42;30.45;;;;;;;4.24;72.73;98226.83;252106;1132;114937;-66
2020/12/12 23:24:27;;;;;;;64.87;31.00;;;;;;;4.25;72.49;98233.82;252061;1132;114757;-66
2020/12/12 23:29:29;;;;;;;65.08;29.37;;;;;;;4.30;72.35;98236.22;251941;1132;114671;-68
2020/12/12 23:34:32;;;;;;;60.53;28.27;;;;;;;4.29;72.91;98232.73;251995;1135;114622;-67
2020/12/12 23:39:35;;;;;;;50.23;23.42;;;;;;;4.28;71.67;98231.04;251950;1132;115335;-68
2020/12/12 23:44:38;;;;;;;66.67;31.43;;;;;;;4.20;71.51;98230.55;251959;1132;114571;-68
2020/12/12 23:49:40;;;;;;;58.07;28.50;;;;;;;4.20;72.06;98235.81;251933;1132;115118;-67
2020/12/12 23:54:43;;;;;;;62.50;30.88;;;;;;;4.15;72.04;98238.69;251901;1132;114887;-68
2020/12/12 23:59:45;;;;;;;50.70;26.47;;;;;;;4.13;72.62;98240.52;252063;1132;114505;-69
